Tropical Cyclones
[Index]
Main Index Home Page Stock Weather Photos Extreme Storms Discussion Storm News and Storm Chasing Reports Tropical Cyclones / Hurricanes / Typhoons Weather Data and Links Wild Fires / Bushfires Weather Observation Techniques Weather Picture Catalogue Tornado Pictures and Reports Stock Video Footage and DVDs for sale
Season 2000-2001 Tropical Cyclone VINCENT Track Map
Season 2000-2001 Summaries (Operational Data): [AU] [SIO] [SPAC] [SH]
<<- Previous TC | 2000-2001 Season | Next TC ->>

click for intensity scale information  Lat/long Grid: Show Hide

 Date Labels: Show Hide

Operational Tropical Cyclone Data : JTWC Advisories

Name: VINCENT
Number: 0109

05 Feb 2001 04:00 UTC to 15 Feb 2001 18:00 UTC

    date/time    lat    long     hPa   cat  kts
2001-02-05 04   11.0   115.0    1005         20          
2001-02-06 04   13.0   116.0    1005         20          
2001-02-07 04   14.0   117.0    1001         25          
2001-02-08 04   14.9   115.3     999         25          
2001-02-09 04   15.0   114.4    1000         25          
2001-02-10 04   15.2   113.3     997         25          
2001-02-11 04   16.0   113.0     996         25          
2001-02-11 10   16.0   113.0     995         25          
2001-02-11 16   16.0   112.7     993         30          
2001-02-11 22   16.0   112.2     990         30          
2001-02-12 04   15.0   111.0     990         30          
2001-02-12 10   14.6   110.8     986    1    45          
2001-02-12 16   14.5   111.0     985    1    45          
2001-02-12 22   14.5   112.0     984    1    45          
2001-02-13 00   14.6   114.1     984    1    45          
2001-02-13 04   15.0   115.1     986    1    45          
2001-02-13 10   15.3   115.6     986    1    45          
2001-02-13 16   15.7   116.4     986    1    45          
2001-02-13 22   15.8   117.5     986    1    45          
2001-02-14 04   16.2   118.5     986    1    45          
2001-02-14 10   16.5   119.0     986    1    45          
2001-02-14 16   16.7   119.6     986    1    45          
2001-02-14 22   16.9   120.2     980    2    55          
2001-02-15 04   17.3   119.9     980    2    55          
2001-02-15 10   18.1   119.6     985    2    50          
2001-02-15 12   18.3   119.6     990    1    40          
2001-02-15 18   19.5   122.2                             
Winds are 10-min average.

Tropical cyclone tracks developed by Michael Bath using operational warnings and advisories and Google Maps.


[Australian Severe Weather index] [Copyright Notice] [Email Contacts] [Search This Site] [Privacy Policy]
Document: tropical_cyclone_vincent.htm Updated: 28 May 2013